createdAt,value
2024-02-28T00:00:34.641Z,681.00
2024-02-28T00:05:35.763Z,685.00
2024-02-28T00:10:33.004Z,684.00
2024-02-28T00:15:33.299Z,681.00
2024-02-28T00:20:31.596Z,677.00
2024-02-28T00:25:30.844Z,658.00
2024-02-28T00:30:30.198Z,659.00
2024-02-28T00:35:28.283Z,662.00
2024-02-28T00:40:29.554Z,659.00
2024-02-28T00:45:28.001Z,660.00
2024-02-28T00:50:28.082Z,664.00
2024-02-28T00:55:26.362Z,659.00
2024-02-28T01:00:25.670Z,662.00
2024-02-28T01:05:24.927Z,662.00
2024-02-28T01:10:24.206Z,656.00
2024-02-28T01:15:25.493Z,655.00
2024-02-28T01:20:22.758Z,660.00
2024-02-28T01:25:23.012Z,652.00
2024-02-28T01:30:22.294Z,661.00
2024-02-28T01:35:21.607Z,653.00
2024-02-28T01:40:19.726Z,654.00
2024-02-28T01:45:19.070Z,659.00
2024-02-28T01:50:19.333Z,657.00
2024-02-28T01:55:17.390Z,659.00
2024-02-28T02:00:16.766Z,661.00
2024-02-28T02:05:16.940Z,654.00
2024-02-28T02:10:15.251Z,648.00
2024-02-28T02:15:14.621Z,644.00
2024-02-28T02:20:13.784Z,646.00
2024-02-28T02:25:12.937Z,651.00
2024-02-28T02:30:14.303Z,651.00
2024-02-28T02:35:12.509Z,655.00
2024-02-28T02:40:10.768Z,662.00
2024-02-28T02:45:10.071Z,656.00
2024-02-28T02:50:11.351Z,657.00
2024-02-28T02:55:08.578Z,653.00
2024-02-28T03:00:08.858Z,659.00
2024-02-28T03:05:09.132Z,648.00
2024-02-28T03:10:06.401Z,648.00
2024-02-28T03:15:06.517Z,650.00
2024-02-28T03:20:04.765Z,655.00
2024-02-28T03:25:06.108Z,650.00
2024-02-28T03:30:04.200Z,652.00
2024-02-28T03:35:01.490Z,657.00
2024-02-28T03:40:02.806Z,658.00
2024-02-28T03:45:03.088Z,651.00
2024-02-28T03:50:01.332Z,647.00
2024-02-28T03:54:59.699Z,644.00
2024-02-28T03:59:58.891Z,648.00
2024-02-28T04:04:58.348Z,643.00
2024-02-28T04:10:00.595Z,647.00
2024-02-28T04:14:56.621Z,645.00
2024-02-28T04:19:55.871Z,647.00
2024-02-28T04:24:56.187Z,641.00
2024-02-28T04:29:55.423Z,648.00
2024-02-28T04:34:54.677Z,645.00
2024-02-28T04:39:52.963Z,649.00
2024-02-28T04:44:52.182Z,643.00
2024-02-28T04:49:51.418Z,638.00
2024-02-28T04:54:50.736Z,630.00
2024-02-28T04:59:49.976Z,632.00
2024-02-28T05:04:50.192Z,631.00
2024-02-28T05:09:48.486Z,629.00
2024-02-28T05:14:47.756Z,630.00
2024-02-28T05:19:46.986Z,636.00
2024-02-28T05:24:46.247Z,632.00
2024-02-28T05:29:45.532Z,623.00
2024-02-28T05:34:44.788Z,625.00
2024-02-28T05:39:44.086Z,624.00
2024-02-28T05:44:45.363Z,626.00
2024-02-28T05:49:44.625Z,624.00
2024-02-28T05:54:41.914Z,619.00
2024-02-28T05:59:42.189Z,619.00
2024-02-28T06:04:42.431Z,621.00
2024-02-28T06:09:41.725Z,616.00
2024-02-28T06:14:39.972Z,621.00
2024-02-28T06:19:38.235Z,619.00
2024-02-28T06:24:37.634Z,618.00
2024-02-28T06:29:36.722Z,621.00
2024-02-28T06:34:38.011Z,617.00
2024-02-28T06:39:35.276Z,617.00
2024-02-28T06:44:34.749Z,617.00
2024-02-28T06:49:33.952Z,615.00
2024-02-28T06:54:33.073Z,613.00
2024-02-28T06:59:33.347Z,613.00
2024-02-28T07:04:31.565Z,618.00
2024-02-28T07:09:30.886Z,615.00
2024-02-28T07:14:30.937Z,614.00
2024-02-28T07:19:29.176Z,614.00
2024-02-28T07:24:29.450Z,614.00
2024-02-28T07:29:27.748Z,615.00
2024-02-28T07:34:28.005Z,615.00
2024-02-28T07:39:26.305Z,611.00
2024-02-28T07:44:26.539Z,610.00
2024-02-28T07:49:27.437Z,607.00
2024-02-28T07:54:25.087Z,606.00
2024-02-28T07:59:24.343Z,604.00
2024-02-28T08:04:24.596Z,604.00
2024-02-28T08:09:21.875Z,605.00
2024-02-28T08:14:22.109Z,602.00
2024-02-28T08:19:21.398Z,612.00
2024-02-28T08:24:20.813Z,606.00
2024-02-28T08:29:18.875Z,639.00
2024-02-28T08:34:19.195Z,630.00
2024-02-28T08:39:18.445Z,629.00
2024-02-28T08:44:17.721Z,653.00
2024-02-28T08:49:16.002Z,646.00
2024-02-28T08:54:15.281Z,641.00
2024-02-28T08:59:14.514Z,632.00
2024-02-28T09:04:13.774Z,638.00
2024-02-28T09:09:14.086Z,632.00
2024-02-28T09:14:13.381Z,622.00
2024-02-28T09:19:11.631Z,622.00
2024-02-28T09:24:09.889Z,646.00
2024-02-28T09:29:10.174Z,670.00
2024-02-28T09:34:09.450Z,687.00
2024-02-28T09:39:08.701Z,718.00
2024-02-28T09:44:08.045Z,717.00
2024-02-28T09:49:07.496Z,696.00
2024-02-28T09:54:07.540Z,749.00
2024-02-28T09:59:05.794Z,747.00
2024-02-28T10:04:06.193Z,743.00
2024-02-28T10:09:04.282Z,767.00
2024-02-28T10:14:03.701Z,731.00
2024-02-28T10:19:02.935Z,688.00
2024-02-28T10:24:05.330Z,663.00
2024-02-28T10:29:01.304Z,662.00
2024-02-28T10:34:02.714Z,664.00
2024-02-28T10:38:59.726Z,676.00
2024-02-28T10:43:59.963Z,687.00
2024-02-28T10:48:59.195Z,703.00
2024-02-28T10:53:58.390Z,711.00
2024-02-28T10:58:58.601Z,681.00
2024-02-28T11:03:56.862Z,727.00
2024-02-28T11:08:56.088Z,741.00
2024-02-28T11:13:54.354Z,707.00
2024-02-28T11:18:54.581Z,731.00
2024-02-28T11:23:53.836Z,714.00
2024-02-28T11:28:52.060Z,720.00
2024-02-28T11:33:52.411Z,678.00
2024-02-28T11:38:51.450Z,656.00
2024-02-28T11:43:52.190Z,674.00
2024-02-28T11:48:48.024Z,650.00
2024-02-28T11:53:48.261Z,635.00
2024-02-28T11:58:48.447Z,662.00
2024-02-28T12:03:47.688Z,623.00
2024-02-28T12:08:45.947Z,574.00
2024-02-28T12:13:47.232Z,666.00
2024-02-28T12:18:45.451Z,648.00
2024-02-28T12:23:43.667Z,641.00
2024-02-28T12:28:44.911Z,621.00
2024-02-28T12:33:44.149Z,660.00
2024-02-28T12:38:43.411Z,666.00
2024-02-28T12:43:41.615Z,629.00
2024-02-28T12:48:39.885Z,685.00
2024-02-28T12:53:40.112Z,671.00
2024-02-28T12:58:40.307Z,662.00
2024-02-28T13:03:39.639Z,666.00
2024-02-28T13:08:36.825Z,663.00
2024-02-28T13:13:35.926Z,682.00
2024-02-28T13:18:36.287Z,664.00
2024-02-28T13:23:34.590Z,667.00
2024-02-28T13:28:33.916Z,654.00
2024-02-28T13:33:33.332Z,616.00
2024-02-28T13:38:32.528Z,635.00
2024-02-28T13:43:34.633Z,608.00
2024-02-28T13:48:30.963Z,628.00
2024-02-28T13:53:31.255Z,631.00
2024-02-28T13:58:36.600Z,612.00
2024-02-28T14:03:28.784Z,637.00
2024-02-28T14:08:32.184Z,654.00
2024-02-28T14:13:27.310Z,636.00
2024-02-28T14:18:27.688Z,623.00
2024-02-28T14:23:27.851Z,644.00
2024-02-28T14:28:25.932Z,648.00
2024-02-28T14:33:25.332Z,631.00
2024-02-28T14:38:23.478Z,651.00
2024-02-28T14:43:22.774Z,612.00
2024-02-28T14:48:22.131Z,677.00
2024-02-28T14:53:22.249Z,687.00
2024-02-28T14:58:20.600Z,651.00
2024-02-28T15:03:19.917Z,702.00
2024-02-28T15:08:20.048Z,683.00
2024-02-28T15:13:20.282Z,632.00
2024-02-28T15:18:19.476Z,637.00
2024-02-28T15:23:19.689Z,656.00
2024-02-28T15:28:16.834Z,609.00
2024-02-28T15:33:15.068Z,623.00
2024-02-28T15:38:15.194Z,639.00
2024-02-28T15:43:13.338Z,612.00
2024-02-28T15:48:13.690Z,638.00
2024-02-28T15:53:12.748Z,652.00
2024-02-28T15:58:12.273Z,640.00
2024-02-28T16:03:12.586Z,633.00
2024-02-28T16:08:10.997Z,655.00
2024-02-28T16:13:09.197Z,650.00
2024-02-28T16:18:09.339Z,635.00
2024-02-28T16:23:07.445Z,681.00
2024-02-28T16:28:06.858Z,625.00
2024-02-28T16:33:06.017Z,626.00
2024-02-28T16:38:06.164Z,670.00
2024-02-28T16:43:04.572Z,640.00
2024-02-28T16:48:04.769Z,680.00
2024-02-28T16:53:03.112Z,728.00
2024-02-28T16:58:02.447Z,682.00
2024-02-28T17:03:01.557Z,663.00
2024-02-28T17:08:01.735Z,663.00
2024-02-28T17:12:58.912Z,678.00
2024-02-28T17:17:58.062Z,664.00
2024-02-28T17:22:58.366Z,685.00
2024-02-28T17:27:59.726Z,676.00
2024-02-28T17:32:58.957Z,639.00
2024-02-28T17:37:56.099Z,627.00
2024-02-28T17:42:55.243Z,624.00
2024-02-28T17:47:55.438Z,649.00
2024-02-28T17:52:54.544Z,653.00
2024-02-28T17:57:53.740Z,647.00
2024-02-28T18:02:53.981Z,654.00
2024-02-28T18:07:53.072Z,686.00
2024-02-28T18:12:50.400Z,695.00
2024-02-28T18:17:49.615Z,703.00
2024-02-28T18:22:49.757Z,674.00
2024-02-28T18:27:47.953Z,661.00
2024-02-28T18:32:47.167Z,787.00
2024-02-28T18:37:47.264Z,742.00
2024-02-28T18:42:46.697Z,749.00
2024-02-28T18:47:44.828Z,767.00
2024-02-28T18:52:44.125Z,772.00
2024-02-28T18:57:43.434Z,758.00
2024-02-28T19:02:42.834Z,725.00
2024-02-28T19:07:42.965Z,744.00
2024-02-28T19:12:41.140Z,776.00
2024-02-28T19:17:41.354Z,773.00
2024-02-28T19:22:39.452Z,783.00
2024-02-28T19:27:38.804Z,780.00
2024-02-28T19:32:39.163Z,804.00
2024-02-28T19:37:37.286Z,799.00
2024-02-28T19:42:38.635Z,793.00
2024-02-28T19:47:36.962Z,820.00
2024-02-28T19:52:35.239Z,815.00
2024-02-28T19:57:35.635Z,812.00
2024-02-28T20:02:33.761Z,824.00
2024-02-28T20:07:32.940Z,798.00
2024-02-28T20:12:32.077Z,815.00
2024-02-28T20:17:31.237Z,825.00
2024-02-28T20:22:31.378Z,784.00
2024-02-28T20:27:30.742Z,784.00
2024-02-28T20:32:28.851Z,780.00
2024-02-28T20:37:30.146Z,794.00
2024-02-28T20:42:27.473Z,806.00
2024-02-28T20:47:27.856Z,805.00
2024-02-28T20:52:27.008Z,804.00
2024-02-28T20:57:24.166Z,794.00
2024-02-28T21:02:24.538Z,794.00
2024-02-28T21:07:36.661Z,800.00
2024-02-28T21:12:22.850Z,792.00
2024-02-28T21:17:22.981Z,574.00
2024-02-28T21:22:22.354Z,753.00
2024-02-28T21:27:20.485Z,533.00
2024-02-28T21:32:21.653Z,603.00
2024-02-28T21:37:18.982Z,499.00
2024-02-28T21:42:19.276Z,631.00
2024-02-28T21:47:16.612Z,560.00
2024-02-28T21:52:15.773Z,614.00
2024-02-28T21:57:15.058Z,604.00
2024-02-28T22:02:15.218Z,487.00
2024-02-28T22:07:15.375Z,611.00
2024-02-28T22:12:15.491Z,528.00
2024-02-28T22:17:13.624Z,615.00
2024-02-28T22:22:11.990Z,594.00
2024-02-28T22:27:12.078Z,659.00
2024-02-28T22:32:10.449Z,616.00
2024-02-28T22:37:10.653Z,633.00
2024-02-28T22:42:08.792Z,491.00
2024-02-28T22:47:08.111Z,642.00
2024-02-28T22:52:08.499Z,606.00
2024-02-28T22:57:06.662Z,597.00
2024-02-28T23:02:07.942Z,619.00
2024-02-28T23:07:06.125Z,562.00
2024-02-28T23:12:04.281Z,567.00
2024-02-28T23:17:03.415Z,641.00
2024-02-28T23:22:02.597Z,640.00
2024-02-28T23:27:03.771Z,746.00
2024-02-28T23:32:02.865Z,742.00
2024-02-28T23:37:01.200Z,748.00
2024-02-28T23:42:01.295Z,740.00
2024-02-28T23:46:58.599Z,726.00
2024-02-28T23:51:57.908Z,687.00
2024-02-28T23:56:59.276Z,667.00
